Gracewood, GA (30812)

9:16 AM EDT on May 27, 2015 (GMT -0400)
Tobacco Road | | Change Station
CLOSE
Current Station
Personal Weather Station
Location: Gracewood, GA
Elevation: 295 ft
Nearby Weather Stations

Elev 295 ft 33.37 °N, 82.03 °W | Updated 10 seconds ago

Overcast
Overcast
70.3 °F
Feels Like 70.3 °F
N
0.0
Wind Variable Wind from East
Gusts 0.0 mph

Today
High -- | Low -- °F
--% Chance of Precip.
Yesterday
High -- | Low -- °F
Precip. -- in
6:21 AM 8:29 PM
Waxing Gibbous, 67% visible
Pressure 30.27 in
Visibility 10.0 miles
Clouds Mostly Cloudy 900 ft
Overcast 1500 ft
Dew Point 68 °F
Humidity 93%
Rainfall 0.02 in
Snow Depth Not available.
UV 1 out of 12
Pollen 2.80 out of 12
Air Quality Not available.
Flu Activity Sporadic
SPECI KAGS 271307Z 00000KT 10SM BKN009 OVC015 22/20 A3027 RMK AO2 CIG 007V011 T02220200

More Conditions Fewer Conditions

Pressure 30.27 in
Visibility 10.0 miles
Clouds Mostly Cloudy 900 ft
Overcast 1500 ft
Dew Point 68 °F
Humidity 93%
Rainfall 0.02 in
Snow Depth Not available.
UV 1 out of 12
Pollen 2.80 out of 12
Air Quality Not available.
Flu Activity Sporadic
SPECI KAGS 271307Z 00000KT 10SM BKN009 OVC015 22/20 A3027 RMK AO2 CIG 007V011 T02220200

More Conditions Fewer Conditions

10-Day Weather Forecast

Almanac

Astronomy

May. 27, 2015 Rise Set
Actual Time
Civil Twilight
Nautical Twilight
Astronomical Twilight
Moon
Length of Visible Light
Length of Day
Tomorrow will be .
, % of the Moon is Illuminated

Today's Extremes

State Highs State Lows

Community

WunderPhotos

Upload Photos

1,824,664 photos uploaded!

WunderBlogs® & News

Nearby

Air Quality

  Air Quality AQ Index Pollutant
Not available.

Snow Depth

Station Depth Elevation

Earthquake Activity

City Distance Mag. Time & Date
Minimum magnitude displayed is 2.5.

Coastal Water Temperatures

Place Temperature

Stations

Nearby Weather Stations

Station Location Temp. Windchill Dew Point Humidity Wind Precip. Elev Updated Type